Time;durP1;ratioP1;P1;durP2;ratioP2;P2;SDS_P1;SDS_P2;PMS_P1;PMS_P2;Temp;Humidity;BMP_temperature;BMP_pressure;BME280_temperature;BME280_humidity;BME280_pressure;Samples;Min_cycle;Max_cycle;Signal;HPM_P1;HPM_P2
2022/05/08 00:01:15;;;;;;;;;0.00;0.00;18.90;99.90;;;;;;5056702;28;9239;-71
2022/05/08 00:03:47;;;;;;;;;1.00;1.00;18.90;99.90;;;;;;5059897;28;10131;-70
2022/05/08 00:06:18;;;;;;;;;2.00;1.00;19.00;99.90;;;;;;5057716;28;9257;-65
2022/05/08 00:08:49;;;;;;;;;1.00;1.00;19.00;99.90;;;;;;5055754;28;8999;-64
2022/05/08 00:11:21;;;;;;;;;1.00;1.00;19.00;99.90;;;;;;5051347;28;9249;-71
2022/05/08 00:13:52;;;;;;;;;0.33;0.33;19.00;99.90;;;;;;5054743;28;9407;-71
2022/05/08 00:16:25;;;;;;;;;1.00;1.00;18.90;99.90;;;;;;5046940;28;10165;-71
2022/05/08 00:18:56;;;;;;;;;1.00;1.00;19.00;99.90;;;;;;5036009;28;9252;-70
2022/05/08 00:21:26;;;;;;;;;0.67;0.67;19.10;99.90;;;;;;5045103;28;9180;-71
2022/05/08 00:23:58;;;;;;;;;1.00;1.00;19.00;99.90;;;;;;5007850;28;9054;-70
2022/05/08 00:26:32;;;;;;;;;1.00;1.00;19.00;99.90;;;;;;5057227;28;9161;-65
2022/05/08 00:29:03;;;;;;;;;1.00;1.00;19.00;99.90;;;;;;5040203;28;9265;-65
2022/05/08 00:31:40;;;;;;;;;1.00;1.00;18.90;99.90;;;;;;5047700;28;9171;-65
2022/05/08 00:34:13;;;;;;;;;1.67;1.67;18.90;99.90;;;;;;5051428;28;9315;-65
2022/05/08 00:36:45;;;;;;;;;2.33;2.33;18.80;99.90;;;;;;5060101;28;9465;-71
2022/05/08 00:39:20;;;;;;;;;1.00;1.00;18.70;99.90;;;;;;5034177;28;9457;-70
2022/05/08 00:41:52;;;;;;;;;2.00;2.00;18.60;99.90;;;;;;5048333;28;10202;-65
2022/05/08 00:44:23;;;;;;;;;0.75;0.75;18.60;99.90;;;;;;5022137;28;9613;-66
2022/05/08 00:46:55;;;;;;;;;0.00;0.00;18.50;99.90;;;;;;5036086;28;9702;-71
2022/05/08 00:49:26;;;;;;;;;2.00;2.00;18.40;99.90;;;;;;5053409;28;9395;-70
2022/05/08 00:51:59;;;;;;;;;1.00;1.00;18.40;99.90;;;;;;5039120;28;9682;-71
2022/05/08 00:54:31;;;;;;;;;3.00;0.00;18.40;99.90;;;;;;5051150;28;9606;-70
2022/05/08 00:57:07;;;;;;;;;2.00;2.00;18.30;99.90;;;;;;5047322;28;9546;-66
2022/05/08 00:59:40;;;;;;;;;1.25;1.25;18.30;99.90;;;;;;5051875;28;9679;-66
2022/05/08 01:02:13;;;;;;;;;0.00;0.00;18.20;99.90;;;;;;5031319;28;9778;-70
2022/05/08 01:04:46;;;;;;;;;2.00;2.00;18.10;99.90;;;;;;5052778;28;9639;-71
2022/05/08 01:07:18;;;;;;;;;2.75;1.75;18.10;99.90;;;;;;5053898;28;9680;-71
2022/05/08 01:09:50;;;;;;;;;0.75;0.75;18.00;99.90;;;;;;5057668;28;10041;-70
2022/05/08 01:12:23;;;;;;;;;2.50;1.75;17.90;99.90;;;;;;5025008;28;9876;-71
2022/05/08 01:15:16;;;;;;;;;1.75;1.75;17.90;99.90;;;;;;5057341;28;9831;-71
2022/05/08 01:17:49;;;;;;;;;1.00;1.00;17.80;99.90;;;;;;5045924;28;9923;-70
2022/05/08 01:20:19;;;;;;;;;2.00;2.00;17.80;99.90;;;;;;5032535;28;10926;-71
2022/05/08 01:22:51;;;;;;;;;2.00;2.00;17.80;99.90;;;;;;5055303;28;10041;-72
2022/05/08 01:25:26;;;;;;;;;0.50;0.50;17.70;99.90;;;;;;5034101;28;10058;-70
2022/05/08 01:28:04;;;;;;;;;1.75;1.75;17.70;99.90;;;;;;5032379;28;10040;-70
2022/05/08 01:30:34;;;;;;;;;1.75;1.00;17.60;99.90;;;;;;5055402;28;10019;-69
2022/05/08 01:33:05;;;;;;;;;1.00;1.00;17.50;99.90;;;;;;5055679;28;9852;-70
2022/05/08 01:35:37;;;;;;;;;2.00;2.00;17.50;99.90;;;;;;5039448;28;9982;-66
2022/05/08 01:38:08;;;;;;;;;2.00;2.00;17.60;99.90;;;;;;5020992;28;10240;-66
2022/05/08 01:40:40;;;;;;;;;2.00;2.00;17.50;99.90;;;;;;5028729;28;10182;-66
2022/05/08 01:43:12;;;;;;;;;3.00;2.00;17.40;99.90;;;;;;5053529;28;10367;-67
2022/05/08 01:45:44;;;;;;;;;4.25;4.25;17.30;99.90;;;;;;5053806;28;11685;-64
2022/05/08 01:48:22;;;;;;;;;6.50;6.50;17.20;99.90;;;;;;5052324;28;10692;-66
2022/05/08 01:50:55;;;;;;;;;6.75;5.75;17.10;99.90;;;;;;5037234;28;10994;-69
2022/05/08 01:53:31;;;;;;;;;5.00;5.00;17.20;99.90;;;;;;5035814;28;10867;-64
2022/05/08 01:56:08;;;;;;;;;6.00;6.00;17.20;99.90;;;;;;5055807;28;10865;-66
2022/05/08 01:58:39;;;;;;;;;13.75;12.50;17.20;99.90;;;;;;5036727;28;10975;-64
2022/05/08 02:01:14;;;;;;;;;11.75;11.75;17.20;99.90;;;;;;5057450;28;11192;-65
2022/05/08 02:03:46;;;;;;;;;11.25;11.25;17.00;99.90;;;;;;5041382;28;11263;-65
2022/05/08 02:06:18;;;;;;;;;12.25;12.25;17.00;99.90;;;;;;5050734;28;11266;-70
2022/05/08 02:08:52;;;;;;;;;12.50;12.50;17.00;99.90;;;;;;5035428;28;11454;-70
2022/05/08 02:11:23;;;;;;;;;12.00;12.00;16.90;99.90;;;;;;5051881;28;11487;-69
2022/05/08 02:13:53;;;;;;;;;12.50;12.50;16.80;99.90;;;;;;5042049;28;11459;-70
2022/05/08 02:16:24;;;;;;;;;13.25;13.25;16.70;99.90;;;;;;5052971;28;11447;-68
2022/05/08 02:18:56;;;;;;;;;12.75;12.75;16.60;99.90;;;;;;5037542;28;11496;-69
2022/05/08 02:21:28;;;;;;;;;15.00;15.00;16.60;99.90;;;;;;5055369;28;12238;-69
2022/05/08 02:23:58;;;;;;;;;16.50;16.25;16.60;99.90;;;;;;5053769;28;11432;-69
2022/05/08 02:26:29;;;;;;;;;10.00;10.00;16.60;99.90;;;;;;5010007;28;11287;-65
2022/05/08 02:29:00;;;;;;;;;13.50;13.50;16.60;99.90;;;;;;5052651;28;11510;-65
2022/05/08 02:31:36;;;;;;;;;12.75;12.75;16.60;99.90;;;;;;5055081;28;11520;-65
2022/05/08 02:34:10;;;;;;;;;11.25;10.25;16.50;99.90;;;;;;5038314;28;11464;-66
2022/05/08 02:36:41;;;;;;;;;6.25;5.75;16.60;99.90;;;;;;5062805;28;11268;-65
2022/05/08 02:39:12;;;;;;;;;5.75;5.75;16.40;99.90;;;;;;5059816;28;11120;-65
2022/05/08 02:41:46;;;;;;;;;5.75;4.00;16.40;99.90;;;;;;5031958;28;11287;-69
2022/05/08 02:44:19;;;;;;;;;1.50;1.50;16.40;99.90;;;;;;5002121;28;10866;-69
2022/05/08 02:46:49;;;;;;;;;1.50;1.50;16.30;99.90;;;;;;5057308;28;10735;-69
2022/05/08 02:49:21;;;;;;;;;3.00;2.00;16.30;99.90;;;;;;5056698;28;10608;-67
2022/05/08 02:51:51;;;;;;;;;3.00;1.50;16.30;99.90;;;;;;5055223;28;10442;-66
2022/05/08 02:54:28;;;;;;;;;5.00;3.00;16.20;99.90;;;;;;5026525;28;11528;-66
2022/05/08 03:00:10;;;;;;;;;4.25;1.00;16.20;99.90;;;;;;5002312;28;10735;-74
2022/05/08 03:02:42;;;;;;;;;3.00;2.00;16.20;99.90;;;;;;5046360;28;10666;-70
2022/05/08 03:05:16;;;;;;;;;1.00;1.00;16.20;99.90;;;;;;5053674;28;10847;-70
2022/05/08 03:07:48;;;;;;;;;1.00;1.00;16.20;99.90;;;;;;5040783;28;10638;-66
2022/05/08 03:10:20;;;;;;;;;2.00;2.00;16.10;99.90;;;;;;5057008;28;10692;-70
2022/05/08 03:12:51;;;;;;;;;2.25;2.00;16.10;99.90;;;;;;5055756;28;10666;-68
2022/05/08 03:15:23;;;;;;;;;1.00;1.00;16.00;99.90;;;;;;5058940;28;10814;-65
2022/05/08 03:18:03;;;;;;;;;2.25;1.25;16.00;99.90;;;;;;5052555;28;10745;-65
2022/05/08 03:20:37;;;;;;;;;2.75;2.75;15.90;99.90;;;;;;5053188;28;10738;-66
2022/05/08 03:23:13;;;;;;;;;1.00;1.00;15.90;99.90;;;;;;5041735;28;10894;-65
2022/05/08 03:25:45;;;;;;;;;3.00;2.25;15.90;99.90;;;;;;5038308;28;10803;-66
2022/05/08 03:28:21;;;;;;;;;2.00;2.00;15.90;99.90;;;;;;5055036;28;10964;-66
2022/05/08 03:30:52;;;;;;;;;2.25;2.25;15.90;99.90;;;;;;5054637;28;10892;-65
2022/05/08 03:33:24;;;;;;;;;2.25;2.25;15.90;99.90;;;;;;5035273;28;10996;-65
2022/05/08 03:35:55;;;;;;;;;1.50;1.50;15.80;99.90;;;;;;5054046;28;10750;-69
2022/05/08 03:38:27;;;;;;;;;3.50;3.50;15.80;99.90;;;;;;5056303;28;10893;-69
2022/05/08 03:40:58;;;;;;;;;2.25;2.25;15.80;99.90;;;;;;5039125;28;10800;-65
2022/05/08 03:43:31;;;;;;;;;3.25;3.25;15.80;99.90;;;;;;5038461;28;12440;-65
2022/05/08 03:46:03;;;;;;;;;2.75;2.75;15.70;99.90;;;;;;5021611;28;10803;-66
2022/05/08 03:48:36;;;;;;;;;3.25;3.25;15.70;99.90;;;;;;5040109;28;11061;-71
2022/05/08 03:51:08;;;;;;;;;3.75;3.75;15.70;99.90;;;;;;5052005;28;10892;-72
2022/05/08 03:53:43;;;;;;;;;3.50;3.50;15.60;99.90;;;;;;5055302;28;10959;-73
2022/05/08 03:56:17;;;;;;;;;4.00;4.00;15.50;99.90;;;;;;5053584;28;10888;-71
2022/05/08 03:58:48;;;;;;;;;3.00;2.00;15.50;99.90;;;;;;5036966;28;10783;-72
2022/05/08 04:01:18;;;;;;;;;3.00;3.00;15.50;99.90;;;;;;5059723;28;10750;-66
2022/05/08 04:03:49;;;;;;;;;4.25;4.25;15.50;99.90;;;;;;5049230;28;10893;-66
2022/05/08 04:06:20;;;;;;;;;4.50;3.75;15.50;99.90;;;;;;5056484;28;11756;-66
2022/05/08 04:08:54;;;;;;;;;4.25;4.25;15.50;99.90;;;;;;5048245;28;11051;-67
2022/05/08 04:11:29;;;;;;;;;3.25;2.00;15.40;99.90;;;;;;5038247;28;10964;-66
2022/05/08 04:14:02;;;;;;;;;3.00;3.00;15.40;99.90;;;;;;5049283;28;10978;-66
2022/05/08 04:16:36;;;;;;;;;3.50;3.50;15.30;99.90;;;;;;5038817;28;11127;-72
2022/05/08 04:19:07;;;;;;;;;3.50;3.00;15.30;99.90;;;;;;5055519;28;11128;-70
2022/05/08 04:21:38;;;;;;;;;3.75;3.75;15.30;99.90;;;;;;5033910;28;11075;-72
2022/05/08 04:24:17;;;;;;;;;2.00;2.00;15.30;99.90;;;;;;5036286;28;11116;-72
2022/05/08 04:26:48;;;;;;;;;4.75;3.75;15.20;99.90;;;;;;5034574;28;11063;-66
2022/05/08 04:29:22;;;;;;;;;3.00;3.00;15.20;99.90;;;;;;5031779;28;11102;-66
2022/05/08 04:31:54;;;;;;;;;3.00;3.00;15.10;99.90;;;;;;5054888;28;11064;-66
2022/05/08 04:34:27;;;;;;;;;4.00;4.00;15.10;99.90;;;;;;5044053;28;11886;-66
2022/05/08 04:36:58;;;;;;;;;3.00;3.00;15.00;99.90;;;;;;5031497;28;11416;-66
2022/05/08 04:39:29;;;;;;;;;3.25;3.25;15.00;99.90;;;;;;5050722;28;11049;-66
2022/05/08 04:42:01;;;;;;;;;3.25;3.25;15.00;99.90;;;;;;5032013;28;11720;-72
2022/05/08 04:44:32;;;;;;;;;0.00;0.00;15.10;99.90;;;;;;5037094;28;11191;-71
2022/05/08 04:47:04;;;;;;;;;3.25;3.00;15.00;99.90;;;;;;5054355;28;10883;-68
2022/05/08 04:49:36;;;;;;;;;6.00;3.00;15.00;99.90;;;;;;5053956;28;11475;-66
2022/05/08 04:52:07;;;;;;;;;4.75;4.75;15.00;99.90;;;;;;5037364;28;11205;-72
2022/05/08 04:54:41;;;;;;;;;6.00;2.50;14.90;99.90;;;;;;5034488;28;11445;-71
2022/05/08 04:57:13;;;;;;;;;3.25;3.25;14.90;99.90;;;;;;5048659;28;11230;-68
2022/05/08 04:59:45;;;;;;;;;3.00;3.00;14.90;99.90;;;;;;5056405;28;11135;-66
2022/05/08 05:02:16;;;;;;;;;4.00;4.00;14.90;99.90;;;;;;5035875;28;11794;-71
2022/05/08 05:04:49;;;;;;;;;5.00;3.25;14.90;99.90;;;;;;5051398;28;11226;-71
2022/05/08 05:07:21;;;;;;;;;4.00;4.00;14.80;99.90;;;;;;5053364;28;11413;-71
2022/05/08 05:09:51;;;;;;;;;2.50;2.50;14.80;99.90;;;;;;5050756;28;11095;-71
2022/05/08 05:12:23;;;;;;;;;2.00;2.00;14.80;99.90;;;;;;5014108;28;11205;-65
2022/05/08 05:14:53;;;;;;;;;5.00;3.75;14.80;99.90;;;;;;5048304;28;12143;-66
2022/05/08 05:17:25;;;;;;;;;3.75;1.75;14.80;99.90;;;;;;5044930;28;11405;-66
2022/05/08 05:19:56;;;;;;;;;2.75;2.75;14.70;99.90;;;;;;5029138;28;11425;-66
2022/05/08 05:22:29;;;;;;;;;3.00;3.00;14.70;99.90;;;;;;5030684;28;11214;-71
2022/05/08 05:25:03;;;;;;;;;2.25;2.25;14.60;99.90;;;;;;5050898;28;11481;-71
2022/05/08 05:27:34;;;;;;;;;3.25;3.25;14.60;99.90;;;;;;5051790;28;11426;-65
2022/05/08 05:30:09;;;;;;;;;3.00;3.00;14.70;99.90;;;;;;5035119;28;11432;-65
2022/05/08 05:32:39;;;;;;;;;7.00;4.00;14.60;99.90;;;;;;5053347;28;12422;-71
2022/05/08 05:35:12;;;;;;;;;3.00;3.00;14.50;99.90;;;;;;5051508;28;11446;-71
2022/05/08 05:37:43;;;;;;;;;2.00;2.00;14.50;99.90;;;;;;5056042;28;11796;-64
2022/05/08 05:40:15;;;;;;;;;5.25;3.75;14.60;99.90;;;;;;5047147;28;11392;-66
2022/05/08 05:42:50;;;;;;;;;6.50;3.50;14.50;99.90;;;;;;5054602;28;11580;-66
2022/05/08 05:45:22;;;;;;;;;3.00;3.00;14.60;99.90;;;;;;5035443;28;11417;-71
2022/05/08 05:47:53;;;;;;;;;3.00;3.00;14.50;99.90;;;;;;5033660;28;11411;-71
2022/05/08 05:50:26;;;;;;;;;4.50;4.50;14.50;99.90;;;;;;5039452;28;11432;-66
2022/05/08 05:53:00;;;;;;;;;2.25;2.25;14.50;99.90;;;;;;5028837;28;11528;-66
2022/05/08 05:55:30;;;;;;;;;3.00;0.00;14.40;99.90;;;;;;5061154;28;11438;-66
2022/05/08 05:58:06;;;;;;;;;4.50;3.00;14.50;99.90;;;;;;5047037;28;11420;-66
2022/05/08 06:00:36;;;;;;;;;3.00;3.00;14.40;99.90;;;;;;5057596;28;11421;-67
2022/05/08 06:03:15;;;;;;;;;2.00;2.00;14.40;99.90;;;;;;5058402;28;11434;-66
2022/05/08 06:05:46;;;;;;;;;3.50;3.50;14.40;99.90;;;;;;5039825;28;11386;-66
2022/05/08 06:08:18;;;;;;;;;4.00;4.00;14.40;99.90;;;;;;5059903;28;11423;-66
2022/05/08 06:10:48;;;;;;;;;2.00;2.00;14.40;99.90;;;;;;5054788;28;12346;-66
2022/05/08 06:13:21;;;;;;;;;3.50;3.50;14.30;99.90;;;;;;5039239;28;11406;-65
2022/05/08 06:15:51;;;;;;;;;2.00;2.00;14.40;99.90;;;;;;5039340;28;12232;-66
2022/05/08 06:18:24;;;;;;;;;3.25;2.00;14.30;99.90;;;;;;5052457;28;11408;-66
2022/05/08 06:20:56;;;;;;;;;5.25;4.00;14.30;99.90;;;;;;5056861;28;11386;-71
2022/05/08 06:23:28;;;;;;;;;1.25;1.25;14.30;99.90;;;;;;5062665;28;11424;-71
2022/05/08 06:26:03;;;;;;;;;4.50;3.00;14.20;99.90;;;;;;5055968;28;11431;-70
2022/05/08 06:28:34;;;;;;;;;1.75;1.75;14.20;99.90;;;;;;5037619;28;11394;-71
2022/05/08 06:31:07;;;;;;;;;3.00;3.00;14.20;99.90;;;;;;5043323;28;11437;-71
2022/05/08 06:33:38;;;;;;;;;3.75;3.75;14.20;99.90;;;;;;5035738;28;11412;-72
2022/05/08 06:36:10;;;;;;;;;4.75;4.75;14.20;99.90;;;;;;5057536;28;11416;-66
2022/05/08 06:38:40;;;;;;;;;4.50;4.50;14.20;99.90;;;;;;5055076;28;11405;-67
2022/05/08 06:41:11;;;;;;;;;2.00;2.00;14.10;99.90;;;;;;5034498;28;11436;-71
2022/05/08 06:43:41;;;;;;;;;2.25;2.25;14.10;99.90;;;;;;5042662;28;11427;-71
2022/05/08 06:46:15;;;;;;;;;3.00;1.75;14.10;99.90;;;;;;5058940;28;11403;-71
2022/05/08 06:48:47;;;;;;;;;2.25;2.25;14.10;99.90;;;;;;5041756;28;12437;-71
2022/05/08 06:51:18;;;;;;;;;3.25;3.25;14.10;99.90;;;;;;5039066;28;11425;-66
2022/05/08 06:53:49;;;;;;;;;3.00;3.00;14.10;99.90;;;;;;5051302;28;11412;-67
2022/05/08 06:56:35;;;;;;;;;4.00;2.00;14.10;99.90;;;;;;5043566;28;11417;-71
2022/05/08 07:01:56;;;;;;;;;2.25;2.00;14.10;99.90;;;;;;5040692;28;12206;-67
2022/05/08 07:04:27;;;;;;;;;3.25;3.25;14.00;99.90;;;;;;5035949;28;11418;-66
2022/05/08 07:06:58;;;;;;;;;3.50;3.50;14.00;99.90;;;;;;5057849;28;11432;-66
2022/05/08 07:09:30;;;;;;;;;3.25;3.25;13.90;99.90;;;;;;5025764;28;11562;-66
2022/05/08 07:12:01;;;;;;;;;4.50;4.50;13.90;99.90;;;;;;5031834;28;11483;-66
2022/05/08 07:14:32;;;;;;;;;2.25;2.25;13.90;99.90;;;;;;5052829;28;11483;-66
2022/05/08 07:17:03;;;;;;;;;3.00;3.00;13.90;99.90;;;;;;5050151;28;11415;-67
2022/05/08 07:19:35;;;;;;;;;6.25;3.75;13.90;99.90;;;;;;5050877;28;11392;-67
2022/05/08 07:22:10;;;;;;;;;2.50;1.50;13.80;99.90;;;;;;5055682;28;11421;-66
2022/05/08 07:24:43;;;;;;;;;1.50;1.50;13.80;99.90;;;;;;5060440;28;11454;-67
2022/05/08 07:27:14;;;;;;;;;2.00;2.00;13.80;99.90;;;;;;5052917;28;12467;-72
2022/05/08 07:29:45;;;;;;;;;5.25;4.00;13.80;99.90;;;;;;5041034;28;11458;-73
2022/05/08 07:32:15;;;;;;;;;4.00;1.50;13.80;99.90;;;;;;5041172;28;11437;-66
2022/05/08 07:37:36;;;;;;;;;4.25;3.75;13.80;99.90;;;;;;5051933;28;12199;-72
2022/05/08 07:40:09;;;;;;;;;3.50;3.50;13.80;99.90;;;;;;5053606;28;11466;-72
2022/05/08 07:42:43;;;;;;;;;5.75;3.75;13.80;99.90;;;;;;5040218;28;11558;-72
2022/05/08 07:45:15;;;;;;;;;3.00;3.00;13.70;99.90;;;;;;5057942;28;11413;-70
2022/05/08 07:47:47;;;;;;;;;4.00;4.00;13.80;99.90;;;;;;5034474;28;11425;-72
2022/05/08 07:50:19;;;;;;;;;2.00;2.00;13.70;99.90;;;;;;5038875;28;11421;-72
2022/05/08 07:52:54;;;;;;;;;2.00;2.00;13.70;99.90;;;;;;5037973;28;12960;-71
2022/05/08 07:55:25;;;;;;;;;4.00;4.00;13.70;99.90;;;;;;5036652;28;11447;-71
2022/05/08 07:57:57;;;;;;;;;4.00;2.75;13.70;99.90;;;;;;5052759;28;12213;-71
2022/05/08 08:00:28;;;;;;;;;4.75;4.50;13.70;99.90;;;;;;5039575;28;11419;-70
2022/05/08 08:02:58;;;;;;;;;2.00;2.00;13.70;99.90;;;;;;5034265;28;11437;-71
2022/05/08 08:05:30;;;;;;;;;2.75;2.75;13.70;99.90;;;;;;5050617;28;11428;-71
2022/05/08 08:08:23;;;;;;;;;2.00;2.00;13.70;99.90;;;;;;5030881;28;11433;-72
2022/05/08 08:10:58;;;;;;;;;2.00;2.00;13.60;99.90;;;;;;5031969;28;11459;-72
2022/05/08 08:13:31;;;;;;;;;3.00;3.00;13.60;99.90;;;;;;5037893;28;11472;-70
2022/05/08 08:16:03;;;;;;;;;4.00;3.00;13.60;99.90;;;;;;5023721;28;11488;-65
2022/05/08 08:18:38;;;;;;;;;2.75;2.75;13.60;99.90;;;;;;5052439;28;11460;-67
2022/05/08 08:21:16;;;;;;;;;4.00;2.00;13.70;99.90;;;;;;5042403;28;11423;-70
2022/05/08 08:23:46;;;;;;;;;2.00;2.00;13.60;99.90;;;;;;5023978;28;11464;-70
2022/05/08 08:26:20;;;;;;;;;3.00;3.00;13.60;99.90;;;;;;5052062;28;11418;-71
2022/05/08 08:28:52;;;;;;;;;2.00;1.75;13.60;99.90;;;;;;5053775;28;11431;-71
2022/05/08 08:31:24;;;;;;;;;2.00;2.00;13.50;99.90;;;;;;5065465;28;11400;-66
2022/05/08 08:33:58;;;;;;;;;2.00;2.00;13.60;99.90;;;;;;5058218;28;12317;-65
2022/05/08 08:36:29;;;;;;;;;2.75;2.75;13.50;99.90;;;;;;5056009;28;11415;-66
2022/05/08 08:39:02;;;;;;;;;2.00;2.00;13.50;99.90;;;;;;5059472;28;11422;-65
2022/05/08 08:41:36;;;;;;;;;1.75;1.75;13.50;99.90;;;;;;5035551;28;11413;-71
2022/05/08 08:49:54;;;;;;;;;2.75;2.00;13.40;99.90;;;;;;5056623;28;11478;-66
2022/05/08 08:52:28;;;;;;;;;2.50;2.50;13.40;99.90;;;;;;5058500;28;11432;-71
2022/05/08 08:55:00;;;;;;;;;1.00;1.00;13.40;99.90;;;;;;5040302;28;11399;-71
2022/05/08 08:57:32;;;;;;;;;4.00;2.00;13.40;99.90;;;;;;5055707;28;11471;-71
2022/05/08 09:00:05;;;;;;;;;2.00;2.00;13.40;99.90;;;;;;5056389;28;12552;-71
2022/05/08 09:02:36;;;;;;;;;2.00;2.00;13.40;99.90;;;;;;5039707;28;11404;-66
2022/05/08 09:05:10;;;;;;;;;4.50;3.00;13.40;99.90;;;;;;5059424;28;11400;-66
2022/05/08 09:07:46;;;;;;;;;2.50;2.50;13.40;99.90;;;;;;5034051;28;11714;-70
2022/05/08 09:10:20;;;;;;;;;0.50;0.50;13.40;99.90;;;;;;5035929;28;11447;-66
2022/05/08 09:13:12;;;;;;;;;2.00;2.00;13.30;99.90;;;;;;5030459;28;11398;-66
2022/05/08 09:15:43;;;;;;;;;1.25;1.25;13.30;99.90;;;;;;5050020;28;11418;-66
2022/05/08 09:18:13;;;;;;;;;1.50;1.50;13.30;99.90;;;;;;5033179;28;11486;-66
2022/05/08 09:20:48;;;;;;;;;2.50;2.25;13.30;99.90;;;;;;5036745;28;11418;-65
2022/05/08 09:23:20;;;;;;;;;4.50;2.00;13.20;99.90;;;;;;5035956;28;11421;-65
2022/05/08 09:25:54;;;;;;;;;1.00;1.00;13.30;99.90;;;;;;5047100;28;11445;-66
2022/05/08 09:28:40;;;;;;;;;4.25;3.75;13.30;99.90;;;;;;5038246;28;12101;-66
2022/05/08 09:31:18;;;;;;;;;1.00;1.00;13.30;99.90;;;;;;5037571;28;11474;-71
2022/05/08 09:33:51;;;;;;;;;3.25;3.25;13.20;99.90;;;;;;5049286;28;11433;-71
2022/05/08 09:36:27;;;;;;;;;1.50;1.50;13.20;99.90;;;;;;5035401;28;11435;-71
2022/05/08 09:39:05;;;;;;;;;2.25;1.75;13.20;99.90;;;;;;5037876;28;11535;-70
2022/05/08 09:41:38;;;;;;;;;1.75;1.75;13.30;99.90;;;;;;5021934;28;11424;-65
2022/05/08 09:44:13;;;;;;;;;2.00;2.00;13.30;99.90;;;;;;5056334;28;11396;-65
2022/05/08 09:46:48;;;;;;;;;2.00;2.00;13.30;99.90;;;;;;5055186;28;11402;-66
2022/05/08 09:49:20;;;;;;;;;2.00;2.00;13.30;99.90;;;;;;5038674;28;11454;-65
2022/05/08 09:51:52;;;;;;;;;3.25;1.75;13.30;99.90;;;;;;5051910;28;11397;-65
2022/05/08 09:54:23;;;;;;;;;3.00;3.00;13.30;99.90;;;;;;5048992;28;11434;-66
2022/05/08 09:56:54;;;;;;;;;2.75;1.00;13.30;99.90;;;;;;5050446;28;11431;-64
2022/05/08 09:59:26;;;;;;;;;2.00;1.00;13.30;99.90;;;;;;5036295;28;11423;-65
2022/05/08 10:01:59;;;;;;;;;2.75;1.00;13.20;99.90;;;;;;5037151;28;11419;-66
2022/05/08 10:04:35;;;;;;;;;1.00;1.00;13.30;99.90;;;;;;5048908;28;11473;-66
2022/05/08 10:07:07;;;;;;;;;1.75;1.75;13.20;99.90;;;;;;5052217;28;11447;-71
2022/05/08 10:15:19;;;;;;;;;1.00;1.00;13.30;99.90;;;;;;5052664;28;11448;-65
2022/05/08 10:17:49;;;;;;;;;1.75;1.75;13.30;99.90;;;;;;5042988;28;11419;-65
2022/05/08 10:20:57;;;;;;;;;2.50;1.75;13.30;99.90;;;;;;5052593;28;11402;-66
2022/05/08 10:23:45;;;;;;;;;2.00;2.00;13.30;99.90;;;;;;5050325;28;11386;-66
2022/05/08 10:26:22;;;;;;;;;3.00;0.00;13.30;99.90;;;;;;5049911;28;11427;-68
2022/05/08 10:29:04;;;;;;;;;2.00;2.00;13.30;99.90;;;;;;5053349;28;11418;-70
2022/05/08 10:31:42;;;;;;;;;2.00;2.00;13.20;99.90;;;;;;5053074;28;11427;-66
2022/05/08 10:34:14;;;;;;;;;3.00;1.75;13.20;99.90;;;;;;5041285;28;11381;-65
2022/05/08 10:37:12;;;;;;;;;1.00;1.00;13.30;99.90;;;;;;5058201;28;12161;-66
2022/05/08 10:39:47;;;;;;;;;1.00;1.00;13.30;99.90;;;;;;5057724;28;11389;-65
2022/05/08 10:42:33;;;;;;;;;1.00;1.00;13.20;99.90;;;;;;5033780;28;11431;-65
2022/05/08 10:45:07;;;;;;;;;0.00;0.00;13.20;99.90;;;;;;5055575;28;11417;-66
2022/05/08 10:47:44;;;;;;;;;3.00;1.25;13.20;99.90;;;;;;5055882;28;11377;-71
2022/05/08 10:50:17;;;;;;;;;0.25;0.25;13.20;99.90;;;;;;5056887;28;12165;-67
2022/05/08 10:52:49;;;;;;;;;0.00;0.00;13.20;99.90;;;;;;5056674;28;11431;-65
2022/05/08 10:55:27;;;;;;;;;2.25;2.25;13.20;99.90;;;;;;5029110;28;11454;-72
2022/05/08 10:57:58;;;;;;;;;0.50;0.50;13.10;99.90;;;;;;5050304;28;11411;-71
2022/05/08 11:00:32;;;;;;;;;1.00;1.00;13.10;99.90;;;;;;5040419;28;11459;-66
2022/05/08 11:03:03;;;;;;;;;1.50;1.50;13.10;99.90;;;;;;5054465;28;11439;-65
2022/05/08 11:05:40;;;;;;;;;0.00;0.00;13.10;99.90;;;;;;5051408;28;11497;-71
2022/05/08 11:08:12;;;;;;;;;0.00;0.00;13.10;99.90;;;;;;5056848;28;11440;-71
2022/05/08 11:10:45;;;;;;;;;1.00;1.00;13.10;99.90;;;;;;5053523;28;11404;-65
2022/05/08 11:13:18;;;;;;;;;1.00;1.00;13.10;99.90;;;;;;5055619;28;11431;-66
2022/05/08 11:15:50;;;;;;;;;0.75;0.75;13.10;99.90;;;;;;5023566;28;11440;-71
2022/05/08 11:18:24;;;;;;;;;4.00;1.00;13.10;99.90;;;;;;5051712;28;11420;-71
2022/05/08 11:21:02;;;;;;;;;1.00;1.00;13.10;99.90;;;;;;5054251;28;11413;-71
2022/05/08 11:23:44;;;;;;;;;0.50;0.50;13.10;99.90;;;;;;5033005;28;11423;-72
2022/05/08 11:26:16;;;;;;;;;1.00;1.00;13.10;99.90;;;;;;5053250;28;11397;-66
2022/05/08 11:28:55;;;;;;;;;0.50;0.50;13.10;99.90;;;;;;5058520;28;11450;-66
2022/05/08 11:31:28;;;;;;;;;0.75;0.75;13.10;99.90;;;;;;5050921;28;12166;-66
2022/05/08 11:36:50;;;;;;;;;1.25;1.00;13.10;99.90;;;;;;5057648;28;11412;-65
2022/05/08 11:39:21;;;;;;;;;1.00;1.00;13.10;99.90;;;;;;5057396;28;11420;-66
2022/05/08 11:41:54;;;;;;;;;0.50;0.50;13.10;99.90;;;;;;5049564;28;11429;-65
2022/05/08 11:44:25;;;;;;;;;0.00;0.00;13.10;99.90;;;;;;5049274;28;11458;-66
2022/05/08 11:46:57;;;;;;;;;2.00;1.00;13.10;99.90;;;;;;5042170;28;11407;-71
2022/05/08 11:49:32;;;;;;;;;0.00;0.00;13.10;99.90;;;;;;5051623;28;11489;-71
2022/05/08 11:52:06;;;;;;;;;1.00;1.00;13.10;99.90;;;;;;5020712;28;11439;-71
2022/05/08 11:54:40;;;;;;;;;0.50;0.50;13.00;99.90;;;;;;5033235;28;11466;-71
2022/05/08 11:57:23;;;;;;;;;2.75;1.00;13.00;99.90;;;;;;5051569;28;11433;-71
2022/05/08 12:00:03;;;;;;;;;0.00;0.00;13.00;99.90;;;;;;5015260;28;11465;-71
2022/05/08 12:02:43;;;;;;;;;0.25;0.25;13.00;99.90;;;;;;5039173;28;11446;-66
2022/05/08 12:05:24;;;;;;;;;0.00;0.00;13.00;99.90;;;;;;5051192;28;11475;-66
2022/05/08 12:07:55;;;;;;;;;1.75;0.50;13.00;99.90;;;;;;5037353;28;11444;-72
2022/05/08 12:10:41;;;;;;;;;0.00;0.00;13.00;99.90;;;;;;5038770;28;11459;-66
2022/05/08 12:13:10;;;;;;;;;0.00;0.00;13.00;99.90;;;;;;5032884;28;11444;-66
2022/05/08 12:15:42;;;;;;;;;0.00;0.00;12.90;99.90;;;;;;5031839;28;11518;-65
2022/05/08 12:18:13;;;;;;;;;0.75;0.75;12.90;99.90;;;;;;5030880;28;11493;-66
2022/05/08 12:20:46;;;;;;;;;1.00;1.00;12.90;99.90;;;;;;5031483;28;11430;-71
2022/05/08 12:23:17;;;;;;;;;0.00;0.00;13.00;99.90;;;;;;5036779;28;11451;-71
2022/05/08 12:25:50;;;;;;;;;0.00;0.00;12.90;99.90;;;;;;5042427;28;11447;-66
2022/05/08 12:28:22;;;;;;;;;0.00;0.00;12.90;99.90;;;;;;5037625;28;11443;-66
2022/05/08 12:30:55;;;;;;;;;0.00;0.00;12.90;99.90;;;;;;5037133;28;11415;-72
2022/05/08 12:33:27;;;;;;;;;0.00;0.00;12.90;99.90;;;;;;5051473;28;11438;-71
2022/05/08 12:35:58;;;;;;;;;0.75;0.75;12.90;99.90;;;;;;5032476;28;11437;-66
2022/05/08 12:38:28;;;;;;;;;0.00;0.00;12.90;99.90;;;;;;5026039;28;12081;-66
2022/05/08 12:41:02;;;;;;;;;0.00;0.00;12.90;99.90;;;;;;5033739;28;11448;-66
2022/05/08 12:43:32;;;;;;;;;0.00;0.00;12.80;99.90;;;;;;5035931;28;11476;-66
2022/05/08 12:46:04;;;;;;;;;0.00;0.00;12.80;99.90;;;;;;5021700;28;11468;-66
2022/05/08 12:48:35;;;;;;;;;0.00;0.00;12.80;99.90;;;;;;5022765;28;11473;-65
2022/05/08 12:51:08;;;;;;;;;0.00;0.00;12.80;99.90;;;;;;5011478;28;11444;-71
2022/05/08 12:53:43;;;;;;;;;0.00;0.00;12.80;99.90;;;;;;4989811;28;11465;-71
2022/05/08 12:56:16;;;;;;;;;0.00;0.00;12.80;99.90;;;;;;5011471;28;11478;-71
2022/05/08 13:01:37;;;;;;;;;0.00;0.00;12.80;99.90;;;;;;5011275;28;11476;-65
2022/05/08 13:04:09;;;;;;;;;0.00;0.00;12.80;99.90;;;;;;5031175;28;11464;-66
2022/05/08 13:06:41;;;;;;;;;0.50;0.50;12.80;99.90;;;;;;5002631;28;11445;-66
2022/05/08 13:09:13;;;;;;;;;2.00;0.00;12.80;99.90;;;;;;5009267;28;11476;-65
2022/05/08 13:11:44;;;;;;;;;3.00;0.00;12.80;99.90;;;;;;4992569;28;11475;-70
2022/05/08 13:14:16;;;;;;;;;1.00;0.00;12.80;99.90;;;;;;5012951;28;11467;-70
2022/05/08 13:16:46;;;;;;;;;0.00;0.00;12.80;99.90;;;;;;5014776;28;11455;-66
2022/05/08 13:19:18;;;;;;;;;0.25;0.25;12.80;99.90;;;;;;5010776;28;11506;-65
2022/05/08 13:21:49;;;;;;;;;0.50;0.50;12.70;99.90;;;;;;4989920;28;11494;-71
2022/05/08 13:24:19;;;;;;;;;0.00;0.00;12.70;99.90;;;;;;5018696;28;11458;-70
2022/05/08 13:26:58;;;;;;;;;0.25;0.25;12.70;99.90;;;;;;5027211;28;11494;-66
2022/05/08 13:29:31;;;;;;;;;0.00;0.00;12.80;99.90;;;;;;5016819;28;11442;-66
2022/05/08 13:32:02;;;;;;;;;2.00;2.00;12.70;99.90;;;;;;5011007;28;11438;-66
2022/05/08 13:34:32;;;;;;;;;1.00;1.00;12.70;99.90;;;;;;5014559;28;11475;-66
2022/05/08 13:37:03;;;;;;;;;1.00;1.00;12.70;99.90;;;;;;5015479;28;11482;-66
2022/05/08 13:39:34;;;;;;;;;1.00;1.00;12.70;99.90;;;;;;5017805;28;11455;-66
2022/05/08 13:42:06;;;;;;;;;1.00;1.00;12.70;99.90;;;;;;5007241;28;11458;-66
2022/05/08 13:44:37;;;;;;;;;0.00;0.00;12.80;99.90;;;;;;5013838;28;11547;-66